createdAt,value
2023-03-29T00:02:38.884Z,4.43
2023-03-29T00:05:42.490Z,4.43
2023-03-29T00:08:46.025Z,4.93
2023-03-29T00:11:49.021Z,5.95
2023-03-29T00:14:52.010Z,5.30
2023-03-29T00:17:54.987Z,6.35
2023-03-29T00:20:58.798Z,8.83
2023-03-29T00:24:01.800Z,5.50
2023-03-29T00:27:05.077Z,5.78
2023-03-29T00:30:10.193Z,4.82
2023-03-29T00:33:14.769Z,4.95
2023-03-29T00:36:18.887Z,5.13
2023-03-29T00:39:21.982Z,4.30
2023-03-29T00:42:25.610Z,5.70
2023-03-29T00:45:31.799Z,5.13
2023-03-29T00:48:34.719Z,6.03
2023-03-29T00:51:38.146Z,5.93
2023-03-29T00:54:43.379Z,4.40
2023-03-29T00:57:46.823Z,5.60
2023-03-29T01:00:53.058Z,4.70
2023-03-29T01:04:07.018Z,5.07
2023-03-29T01:07:18.094Z,4.30
2023-03-29T01:10:26.580Z,4.57
2023-03-29T01:13:51.522Z,5.32
2023-03-29T01:16:54.629Z,5.03
2023-03-29T01:20:00.457Z,5.07
2023-03-29T01:23:14.175Z,4.97
2023-03-29T01:26:42.697Z,5.73
2023-03-29T01:29:54.276Z,5.82
2023-03-29T01:33:23.418Z,3.97
2023-03-29T01:36:50.884Z,4.82
2023-03-29T01:39:54.035Z,4.33
2023-03-29T01:43:34.448Z,3.90
2023-03-29T01:46:46.110Z,4.65
2023-03-29T01:49:57.231Z,7.38
2023-03-29T01:53:01.471Z,5.32
2023-03-29T01:56:19.769Z,5.50
2023-03-29T01:59:29.487Z,6.60
2023-03-29T02:02:33.108Z,4.25
2023-03-29T02:05:37.948Z,6.25
2023-03-29T02:08:41.217Z,7.10
2023-03-29T02:11:44.159Z,5.03
2023-03-29T02:14:47.212Z,4.20
2023-03-29T02:17:51.010Z,5.35
2023-03-29T02:20:54.118Z,4.97
2023-03-29T02:23:57.576Z,8.40
2023-03-29T02:27:01.348Z,6.50
2023-03-29T02:30:08.385Z,6.77
2023-03-29T02:33:23.966Z,7.20
2023-03-29T02:36:29.891Z,6.28
2023-03-29T02:39:33.785Z,6.20
2023-03-29T02:42:36.907Z,5.70
2023-03-29T02:45:39.907Z,6.23
2023-03-29T02:48:42.913Z,6.57
2023-03-29T02:51:47.370Z,5.80
2023-03-29T02:54:51.344Z,7.55
2023-03-29T02:57:54.326Z,7.27
2023-03-29T03:00:57.840Z,4.97
2023-03-29T03:04:02.386Z,9.50
2023-03-29T03:07:05.569Z,5.85
2023-03-29T03:10:10.185Z,6.43
2023-03-29T03:13:14.155Z,6.83
2023-03-29T03:16:17.109Z,7.77
2023-03-29T03:19:20.448Z,11.38
2023-03-29T03:22:23.354Z,8.50
2023-03-29T03:25:26.262Z,10.50
2023-03-29T03:28:29.358Z,14.33
2023-03-29T03:31:33.628Z,11.63
2023-03-29T03:34:46.802Z,10.23
2023-03-29T03:37:50.043Z,14.13
2023-03-29T03:40:55.196Z,10.23
2023-03-29T03:43:58.697Z,7.47
2023-03-29T03:47:01.687Z,5.57
2023-03-29T03:50:05.727Z,10.45
2023-03-29T03:53:09.380Z,7.15
2023-03-29T03:56:30.621Z,8.65
2023-03-29T03:59:42.494Z,7.83
2023-03-29T04:02:51.649Z,7.90
2023-03-29T04:05:54.787Z,9.55
2023-03-29T04:09:00.945Z,12.30
2023-03-29T04:12:12.203Z,11.07
2023-03-29T04:15:17.993Z,10.77
2023-03-29T04:18:29.266Z,12.40
2023-03-29T04:21:34.936Z,11.38
2023-03-29T04:24:37.941Z,9.35
2023-03-29T04:28:09.649Z,10.90
2023-03-29T04:31:28.190Z,11.17
2023-03-29T04:34:53.732Z,12.03
2023-03-29T04:37:57.054Z,15.00
2023-03-29T04:41:02.383Z,28.40
2023-03-29T04:44:24.320Z,30.35
2023-03-29T04:47:31.270Z,9.90
2023-03-29T04:50:40.308Z,9.70
2023-03-29T04:53:43.293Z,9.50
2023-03-29T04:56:46.415Z,9.50
2023-03-29T05:00:20.434Z,10.98
2023-03-29T05:03:46.453Z,12.40
2023-03-29T05:06:55.923Z,11.30
2023-03-29T05:09:59.641Z,10.45
2023-03-29T05:13:04.108Z,12.25
2023-03-29T05:16:08.910Z,11.93
2023-03-29T05:19:13.086Z,16.73
2023-03-29T05:22:21.801Z,19.30
2023-03-29T05:25:25.887Z,17.55
2023-03-29T05:28:31.346Z,12.90
2023-03-29T05:31:34.782Z,12.07
2023-03-29T05:34:38.133Z,14.10
2023-03-29T05:37:41.254Z,19.63
2023-03-29T05:40:44.336Z,23.63
2023-03-29T05:44:02.545Z,25.30
2023-03-29T05:47:07.248Z,51.33
2023-03-29T05:50:11.226Z,58.50
2023-03-29T05:53:15.972Z,47.73
2023-03-29T05:56:23.770Z,35.17
2023-03-29T05:59:29.689Z,18.48
2023-03-29T06:02:36.599Z,15.68
2023-03-29T06:05:40.434Z,10.70
2023-03-29T06:08:44.024Z,11.13
2023-03-29T06:12:10.687Z,12.20
2023-03-29T06:15:18.377Z,11.95
2023-03-29T06:18:25.052Z,9.52
2023-03-29T06:21:28.578Z,15.73
2023-03-29T06:24:35.087Z,10.27
2023-03-29T06:27:46.869Z,11.35
2023-03-29T06:30:54.140Z,9.65
2023-03-29T06:34:01.721Z,10.55
2023-03-29T06:37:23.787Z,7.93
2023-03-29T06:40:37.885Z,10.20
2023-03-29T06:43:41.007Z,13.38
2023-03-29T06:46:50.332Z,11.05
2023-03-29T06:49:53.386Z,9.88
2023-03-29T06:53:11.704Z,11.13
2023-03-29T06:56:17.749Z,10.67
2023-03-29T06:59:32.273Z,9.45
2023-03-29T07:02:49.716Z,10.13
2023-03-29T07:05:56.832Z,7.82
2023-03-29T07:09:01.812Z,7.03
2023-03-29T07:12:21.403Z,11.47
2023-03-29T07:15:24.442Z,9.25
2023-03-29T07:18:45.843Z,10.70
2023-03-29T07:21:58.737Z,9.50
2023-03-29T07:25:13.095Z,7.80
2023-03-29T07:28:16.170Z,10.20
2023-03-29T07:31:19.533Z,7.28
2023-03-29T07:34:30.076Z,7.22
2023-03-29T07:37:34.314Z,7.25
2023-03-29T07:40:37.480Z,6.13
2023-03-29T07:44:09.674Z,6.50
2023-03-29T07:47:15.683Z,7.03
2023-03-29T07:50:18.887Z,9.23
2023-03-29T07:53:23.080Z,7.00
2023-03-29T07:56:28.392Z,7.13
2023-03-29T07:59:49.859Z,6.50
2023-03-29T08:02:59.212Z,7.22
2023-03-29T08:06:03.266Z,6.45
2023-03-29T08:09:09.410Z,6.50
2023-03-29T08:12:12.850Z,7.47
2023-03-29T08:15:16.646Z,5.37
2023-03-29T08:18:19.824Z,6.85
2023-03-29T08:21:22.746Z,5.72
2023-03-29T08:24:26.796Z,5.57
2023-03-29T08:27:34.001Z,5.40
2023-03-29T08:30:38.512Z,4.77
2023-03-29T08:33:44.882Z,7.18
2023-03-29T08:37:06.247Z,5.40
2023-03-29T08:40:19.810Z,7.32
2023-03-29T08:43:52.298Z,5.03
2023-03-29T08:47:44.205Z,5.40
2023-03-29T08:50:52.899Z,4.75
2023-03-29T08:54:17.169Z,4.10
2023-03-29T08:57:48.135Z,5.18
2023-03-29T09:01:01.797Z,5.23
2023-03-29T09:04:19.122Z,4.87
2023-03-29T09:07:29.530Z,5.35
2023-03-29T09:10:40.938Z,5.10
2023-03-29T09:14:03.442Z,5.97
2023-03-29T09:17:30.742Z,4.23
2023-03-29T09:20:50.175Z,4.80
2023-03-29T09:24:02.052Z,5.63
2023-03-29T09:27:44.283Z,5.55
2023-03-29T09:31:31.725Z,5.30
2023-03-29T09:34:47.997Z,5.27
2023-03-29T09:37:55.374Z,5.10
2023-03-29T09:41:26.763Z,6.38
2023-03-29T09:44:57.357Z,5.05
2023-03-29T09:48:17.584Z,6.32
2023-03-29T09:51:28.016Z,6.17
2023-03-29T09:54:31.941Z,8.63
2023-03-29T09:57:47.308Z,6.47
2023-03-29T10:00:51.608Z,6.53
2023-03-29T10:03:55.497Z,5.80
2023-03-29T10:06:59.999Z,7.03
2023-03-29T10:10:03.789Z,8.57
2023-03-29T10:13:10.337Z,6.75
2023-03-29T10:16:21.974Z,45.97
2023-03-29T10:19:34.724Z,8.43
2023-03-29T10:22:40.044Z,21.27
2023-03-29T10:25:45.707Z,7.07
2023-03-29T10:28:48.679Z,6.50
2023-03-29T10:31:51.897Z,7.85
2023-03-29T10:35:04.675Z,5.75
2023-03-29T10:38:15.023Z,7.53
2023-03-29T10:41:18.167Z,6.13
2023-03-29T10:44:33.313Z,7.43
2023-03-29T10:47:36.786Z,6.93
2023-03-29T10:50:39.848Z,6.50
2023-03-29T10:53:42.907Z,7.00
2023-03-29T10:56:56.810Z,7.50
2023-03-29T10:59:59.801Z,6.45
2023-03-29T11:03:33.281Z,6.25
2023-03-29T11:06:47.404Z,6.57
2023-03-29T11:10:26.119Z,6.97
2023-03-29T11:13:51.050Z,7.80
2023-03-29T11:17:09.423Z,8.25
2023-03-29T11:20:18.369Z,7.53
2023-03-29T11:23:41.533Z,6.65
2023-03-29T11:26:59.390Z,5.83
2023-03-29T11:30:27.462Z,7.20
2023-03-29T11:33:52.223Z,6.60
2023-03-29T11:37:04.145Z,7.43
2023-03-29T11:40:32.890Z,7.05
2023-03-29T11:43:39.834Z,10.70
2023-03-29T11:46:58.759Z,9.47
2023-03-29T11:50:18.484Z,6.35
2023-03-29T11:53:52.375Z,6.82
2023-03-29T11:57:02.366Z,8.68
2023-03-29T12:00:15.760Z,8.33
2023-03-29T12:03:28.590Z,8.07
2023-03-29T12:06:33.396Z,7.68
2023-03-29T12:09:46.786Z,8.80
2023-03-29T12:13:15.425Z,6.97
2023-03-29T12:16:33.489Z,8.17
2023-03-29T12:20:12.495Z,8.40
2023-03-29T12:23:18.882Z,8.52
2023-03-29T12:26:29.219Z,9.13
2023-03-29T12:30:01.340Z,7.63
2023-03-29T12:33:10.031Z,7.20
2023-03-29T12:36:37.020Z,9.80
2023-03-29T12:40:16.973Z,8.15
2023-03-29T12:43:39.373Z,8.00
2023-03-29T12:47:01.098Z,7.85
2023-03-29T12:50:04.790Z,9.63
2023-03-29T12:53:18.967Z,9.77
2023-03-29T12:56:23.851Z,8.73
2023-03-29T12:59:43.919Z,7.40
2023-03-29T13:02:50.125Z,7.28
2023-03-29T13:06:05.196Z,11.93
2023-03-29T13:09:30.851Z,7.27
2023-03-29T13:12:40.298Z,7.55
2023-03-29T13:15:43.538Z,8.13
2023-03-29T13:18:55.328Z,7.05
2023-03-29T13:22:24.678Z,7.37
2023-03-29T13:25:41.668Z,10.33
2023-03-29T13:28:50.430Z,7.97
2023-03-29T13:32:06.622Z,7.45
2023-03-29T13:35:33.550Z,7.38
2023-03-29T13:38:49.888Z,9.13
2023-03-29T13:41:53.579Z,7.73
2023-03-29T13:45:13.873Z,7.40
2023-03-29T13:48:27.605Z,7.18
2023-03-29T13:51:39.453Z,6.32
2023-03-29T13:54:45.775Z,6.27
2023-03-29T13:58:10.828Z,9.17
2023-03-29T14:01:13.825Z,7.65
2023-03-29T14:04:41.996Z,7.43
2023-03-29T14:07:53.217Z,7.53
2023-03-29T14:10:56.324Z,6.70
2023-03-29T14:14:01.563Z,6.40
2023-03-29T14:17:05.036Z,7.97
2023-03-29T14:20:11.788Z,6.40
2023-03-29T14:23:18.610Z,7.65
2023-03-29T14:26:22.989Z,8.27
2023-03-29T14:29:34.191Z,8.37
2023-03-29T14:32:39.319Z,6.60
2023-03-29T14:35:42.414Z,7.90
2023-03-29T14:38:47.514Z,8.80
2023-03-29T14:41:54.392Z,6.63
2023-03-29T14:45:04.277Z,8.67
2023-03-29T14:48:07.315Z,6.40
2023-03-29T14:51:10.714Z,6.13
2023-03-29T14:54:27.497Z,7.47
2023-03-29T14:57:34.503Z,7.07
2023-03-29T15:00:44.064Z,11.30
2023-03-29T15:03:56.999Z,16.20
2023-03-29T15:07:00.107Z,8.85
2023-03-29T15:10:05.582Z,7.65
2023-03-29T15:13:08.810Z,8.70
2023-03-29T15:16:18.828Z,7.00
2023-03-29T15:19:22.476Z,7.65
2023-03-29T15:22:34.716Z,6.68
2023-03-29T15:25:41.966Z,5.95
2023-03-29T15:28:49.877Z,7.43
2023-03-29T15:31:59.335Z,6.97
2023-03-29T15:35:05.089Z,7.25
2023-03-29T15:38:11.158Z,7.55
2023-03-29T15:41:16.490Z,8.20
2023-03-29T15:44:26.686Z,8.53
2023-03-29T15:47:29.653Z,11.93
2023-03-29T15:50:32.651Z,6.78
2023-03-29T15:53:36.438Z,9.38
2023-03-29T15:56:49.597Z,7.90
2023-03-29T15:59:52.593Z,7.00
2023-03-29T16:02:55.541Z,7.60
2023-03-29T16:05:58.457Z,9.75
2023-03-29T16:09:01.486Z,8.25
2023-03-29T16:12:04.634Z,9.98
2023-03-29T16:15:23.585Z,9.23
2023-03-29T16:18:27.252Z,11.07
2023-03-29T16:21:30.308Z,13.50
2023-03-29T16:24:34.119Z,11.63
2023-03-29T16:27:37.293Z,9.10
2023-03-29T16:30:43.417Z,9.03
2023-03-29T16:33:46.390Z,9.70
2023-03-29T16:36:49.738Z,9.63
2023-03-29T16:39:52.860Z,7.97
2023-03-29T16:42:55.857Z,10.00
2023-03-29T16:45:58.883Z,7.53
2023-03-29T16:49:02.505Z,8.50
2023-03-29T16:52:05.803Z,8.93
2023-03-29T16:55:10.709Z,9.07
2023-03-29T16:58:13.702Z,11.18
2023-03-29T17:01:20.661Z,6.80
2023-03-29T17:04:23.691Z,10.80
2023-03-29T17:07:27.214Z,8.30
2023-03-29T17:10:30.259Z,8.80
2023-03-29T17:13:33.257Z,9.70
2023-03-29T17:16:36.349Z,10.83
2023-03-29T17:19:39.419Z,9.43
2023-03-29T17:22:42.387Z,11.32
2023-03-29T17:25:45.625Z,9.57
2023-03-29T17:28:49.450Z,10.75
2023-03-29T17:31:52.376Z,7.70
2023-03-29T17:34:55.425Z,9.33
2023-03-29T17:37:58.925Z,9.52
2023-03-29T17:41:03.008Z,13.68
2023-03-29T17:44:07.238Z,13.13
2023-03-29T17:47:10.242Z,9.77
2023-03-29T17:50:13.357Z,14.00
2023-03-29T17:53:16.448Z,10.70
2023-03-29T17:56:22.912Z,9.88
2023-03-29T17:59:26.187Z,10.02
2023-03-29T18:02:29.255Z,13.13
2023-03-29T18:05:32.269Z,11.03
2023-03-29T18:08:35.312Z,12.13
2023-03-29T18:11:39.118Z,14.18
2023-03-29T18:14:42.098Z,17.40
2023-03-29T18:17:45.147Z,12.07
2023-03-29T18:20:48.106Z,12.33
2023-03-29T18:23:52.872Z,11.65
2023-03-29T18:26:56.784Z,12.18
2023-03-29T18:30:00.086Z,9.02
2023-03-29T18:33:03.101Z,15.90
2023-03-29T18:36:10.757Z,13.40
2023-03-29T18:39:15.780Z,9.52
2023-03-29T18:42:21.857Z,9.55
2023-03-29T18:45:29.801Z,10.45
2023-03-29T18:48:39.009Z,9.93
2023-03-29T18:51:42.386Z,10.27
2023-03-29T18:54:45.455Z,10.82
2023-03-29T18:57:48.394Z,11.48
2023-03-29T19:00:51.651Z,11.88
2023-03-29T19:04:00.805Z,12.70
2023-03-29T19:07:03.824Z,14.67
2023-03-29T19:10:07.842Z,16.92
2023-03-29T19:13:11.151Z,13.73
2023-03-29T19:16:14.138Z,11.65
2023-03-29T19:19:18.593Z,11.53
2023-03-29T19:22:21.517Z,10.63
2023-03-29T19:25:25.934Z,8.80
2023-03-29T19:28:29.009Z,10.07
2023-03-29T19:31:33.570Z,8.20
2023-03-29T19:34:37.248Z,10.47
2023-03-29T19:37:40.735Z,8.20
2023-03-29T19:40:47.424Z,10.40
2023-03-29T19:43:50.452Z,8.75
2023-03-29T19:46:53.490Z,9.15
2023-03-29T19:49:58.538Z,8.53
2023-03-29T19:53:01.581Z,7.53
2023-03-29T19:56:05.023Z,7.95
2023-03-29T19:59:10.964Z,8.20
2023-03-29T20:02:14.120Z,7.75
2023-03-29T20:05:17.285Z,7.80
2023-03-29T20:08:20.362Z,8.20
2023-03-29T20:11:24.389Z,8.02
2023-03-29T20:14:27.383Z,10.25
2023-03-29T20:17:30.582Z,9.25
2023-03-29T20:20:35.722Z,8.47
2023-03-29T20:23:38.870Z,11.27
2023-03-29T20:26:41.832Z,8.45
2023-03-29T20:29:44.788Z,8.40
2023-03-29T20:32:47.843Z,9.77
2023-03-29T20:35:50.890Z,8.37
2023-03-29T20:38:56.270Z,9.10
2023-03-29T20:42:00.563Z,9.18
2023-03-29T20:45:06.575Z,9.02
2023-03-29T20:48:09.863Z,8.88
2023-03-29T20:51:14.183Z,9.83
2023-03-29T20:54:18.255Z,8.23
2023-03-29T20:57:21.415Z,8.48
2023-03-29T21:00:25.671Z,8.68
2023-03-29T21:03:28.715Z,8.63
2023-03-29T21:06:31.691Z,10.47
2023-03-29T21:09:35.997Z,8.00
2023-03-29T21:12:40.105Z,8.27
2023-03-29T21:15:43.782Z,10.30
2023-03-29T21:18:47.036Z,11.32
2023-03-29T21:21:52.301Z,8.73
2023-03-29T21:24:55.781Z,9.30
2023-03-29T21:27:58.789Z,9.13
2023-03-29T21:31:06.197Z,9.27
2023-03-29T21:34:09.582Z,12.85
2023-03-29T21:37:15.178Z,13.07
2023-03-29T21:40:18.362Z,16.07
2023-03-29T21:43:21.504Z,15.75
2023-03-29T21:46:25.888Z,19.10
2023-03-29T21:49:28.875Z,24.10
2023-03-29T21:52:31.832Z,27.30
2023-03-29T21:55:36.297Z,21.10
2023-03-29T21:58:39.335Z,21.05
2023-03-29T22:01:42.301Z,21.00
2023-03-29T22:04:45.390Z,21.77
2023-03-29T22:07:50.452Z,20.87
2023-03-29T22:10:57.030Z,20.50
2023-03-29T22:14:00.024Z,19.55
2023-03-29T22:17:05.912Z,19.67
2023-03-29T22:20:15.692Z,17.65
2023-03-29T22:23:18.623Z,18.70
2023-03-29T22:26:23.538Z,17.17
2023-03-29T22:29:26.573Z,19.10
2023-03-29T22:32:30.510Z,19.80
2023-03-29T22:35:35.408Z,20.73
2023-03-29T22:38:38.432Z,17.53
2023-03-29T22:41:42.030Z,18.30
2023-03-29T22:44:44.987Z,20.92
2023-03-29T22:47:48.027Z,21.08
2023-03-29T22:50:51.116Z,20.35
2023-03-29T22:53:54.081Z,22.17
2023-03-29T22:56:57.406Z,20.97
2023-03-29T23:00:00.669Z,19.23
2023-03-29T23:03:03.740Z,19.15
2023-03-29T23:06:07.052Z,18.73
2023-03-29T23:09:10.044Z,18.37
2023-03-29T23:12:13.005Z,20.80
2023-03-29T23:15:17.116Z,22.23
2023-03-29T23:18:21.200Z,24.30
2023-03-29T23:21:24.484Z,24.02
2023-03-29T23:24:30.436Z,19.63
2023-03-29T23:27:33.397Z,23.30
2023-03-29T23:30:37.146Z,20.85
2023-03-29T23:33:41.379Z,21.10
2023-03-29T23:36:44.430Z,23.83
2023-03-29T23:39:47.395Z,21.13
2023-03-29T23:42:50.363Z,21.20
2023-03-29T23:45:57.643Z,23.02
2023-03-29T23:49:00.592Z,20.27
2023-03-29T23:52:03.638Z,23.13
2023-03-29T23:55:07.392Z,22.47
2023-03-29T23:58:10.330Z,22.87
